Capitol Logistics 405




KBNA
Nashville International Airport
Nashville, Tennessee
KMIA
Miami International Airport
Miami, Florida

Route Details

Aircraft Information
Group: Narrowbodies
Types: B738,B752
Route Data
Demand: V
Distance: 702nm
Duration: 1h 58m
Recm'd Route: TIPPN3 BRXTN BULZI NICKI Q81 ENDEW JUULI SSCOT5
Origin Wx: KBNA 272153Z 29008G17KT 10SM FEW027 SCT034 BKN065 22/12 A2991 RMK AO2 SLP124 T02170122
Dest. Wx: KMIA 272153Z 15008G19KT 10SM FEW035 SCT100 SCT200 BKN250 29/22 A2996 RMK AO2 LTG DSNT NW SLP146 CB DSNT NW MOV NE T02890222 $
Notes:

Financial History
Total Freight: 366,047lbs
Average Load: 40,672lbs/flt
Fuel Used: 121,044lbs
Avg. Fuel Used: 13,449lbs/flt
Fuel Expense: $81,121
Avg. Fuel Expense: $9,013
Avg. Fuel Cost: $0.64/lbs
Total Gross Income: $599,015
Pilot Pay: $1,091
Total Expenses: $95,132
Total Revenue: $420,338
Average Revenue: $66,557.22